sensor_id;sensor_type;location;lat;lon;timestamp;P1;P2;P0
79317;PMS7003;68779;50.036;19.964;2023-12-20T00:28:32;14;13;9
79317;PMS7003;68779;50.036;19.964;2023-12-20T01:29:18;14;14;10
79317;PMS7003;68779;50.036;19.964;2023-12-20T01:59:36;19;17;13
79317;PMS7003;68779;50.036;19.964;2023-12-20T02:29:53;15;12;8
79317;PMS7003;68779;50.036;19.964;2023-12-20T03:00:10;10;10;6
79317;PMS7003;68779;50.036;19.964;2023-12-20T03:30:26;10;10;7
79317;PMS7003;68779;50.036;19.964;2023-12-20T04:00:39;11;10;8
79317;PMS7003;68779;50.036;19.964;2023-12-20T04:30:53;7;6;5
79317;PMS7003;68779;50.036;19.964;2023-12-20T05:01:11;5;5;3
79317;PMS7003;68779;50.036;19.964;2023-12-20T05:31:34;3;3;3
79317;PMS7003;68779;50.036;19.964;2023-12-20T06:02:03;4;4;2
79317;PMS7003;68779;50.036;19.964;2023-12-20T06:32:19;7;3;2
79317;PMS7003;68779;50.036;19.964;2023-12-20T07:02:34;4;4;3
79317;PMS7003;68779;50.036;19.964;2023-12-20T07:32:49;6;5;4
79317;PMS7003;68779;50.036;19.964;2023-12-20T08:03:04;12;12;9
79317;PMS7003;68779;50.036;19.964;2023-12-20T08:33:19;12;10;7
79317;PMS7003;68779;50.036;19.964;2023-12-20T09:03:33;10;10;7
79317;PMS7003;68779;50.036;19.964;2023-12-20T09:33:47;7;6;5
79317;PMS7003;68779;50.036;19.964;2023-12-20T10:04:04;12;11;9
79317;PMS7003;68779;50.036;19.964;2023-12-20T10:34:25;6;5;4
79317;PMS7003;68779;50.036;19.964;2023-12-20T12:36:09;3;3;2
79317;PMS7003;68779;50.036;19.964;2023-12-20T13:06:24;4;4;3
79317;PMS7003;68779;50.036;19.964;2023-12-20T13:36:40;5;4;3
79317;PMS7003;68779;50.036;19.964;2023-12-20T14:06:54;4;4;3
79317;PMS7003;68779;50.036;19.964;2023-12-20T14:37:11;5;5;4
79317;PMS7003;68779;50.036;19.964;2023-12-20T15:07:25;7;6;6
79317;PMS7003;68779;50.036;19.964;2023-12-20T15:37:40;8;7;6
79317;PMS7003;68779;50.036;19.964;2023-12-20T16:07:54;6;6;5
79317;PMS7003;68779;50.036;19.964;2023-12-20T16:38:11;9;8;7
79317;PMS7003;68779;50.036;19.964;2023-12-20T17:08:26;7;7;6
79317;PMS7003;68779;50.036;19.964;2023-12-20T17:38:41;8;6;5
79317;PMS7003;68779;50.036;19.964;2023-12-20T18:24:16;6;6;4
79317;PMS7003;68779;50.036;19.964;2023-12-20T18:54:36;8;8;6
79317;PMS7003;68779;50.036;19.964;2023-12-20T19:24:49;6;6;4
79317;PMS7003;68779;50.036;19.964;2023-12-20T19:55:04;2;2;2
79317;PMS7003;68779;50.036;19.964;2023-12-20T21:26:22;2;2;1
79317;PMS7003;68779;50.036;19.964;2023-12-20T21:56:43;2;2;2
79317;PMS7003;68779;50.036;19.964;2023-12-20T22:26:57;1;1;0
79317;PMS7003;68779;50.036;19.964;2023-12-20T22:57:13;2;2;2
79317;PMS7003;68779;50.036;19.964;2023-12-20T23:57:57;2;2;1
